Time;durP1;ratioP1;P1;durP2;ratioP2;P2;SDS_P1;SDS_P2;PMS_P1;PMS_P2;Temp;Humidity;BMP_temperature;BMP_pressure;BME280_temperature;BME280_humidity;BME280_pressure;Samples;Min_cycle;Max_cycle;Signal;HPM_P1;HPM_P2
2022/10/11 00:03:51;;;;;;;7.20;3.40;;;;;;;;;;9922690;29;20654;-63
2022/10/11 00:08:50;;;;;;;4.28;3.22;;;;;;;;;;9923899;29;20103;-63
2022/10/11 00:13:49;;;;;;;5.65;2.85;;;;;;;;;;9924774;29;20077;-62
2022/10/11 00:18:47;;;;;;;7.60;4.47;;;;;;;;;;9923640;29;20087;-63
2022/10/11 00:23:45;;;;;;;6.68;3.28;;;;;;;;;;9931359;29;20096;-62
2022/10/11 00:28:45;;;;;;;5.80;3.55;;;;;;;;;;9927799;29;20080;-62
2022/10/11 00:33:43;;;;;;;8.10;3.33;;;;;;;;;;9922837;29;20088;-62
2022/10/11 00:38:41;;;;;;;4.78;3.45;;;;;;;;;;9923459;29;20519;-61
2022/10/11 00:43:40;;;;;;;4.57;3.33;;;;;;;;;;9929445;29;20076;-62
2022/10/11 00:48:41;;;;;;;4.78;3.67;;;;;;;;;;9922819;29;20081;-62
2022/10/11 00:53:39;;;;;;;4.25;3.47;;;;;;;;;;9922138;29;20511;-62
2022/10/11 00:58:38;;;;;;;6.72;3.53;;;;;;;;;;9922531;29;20084;-62
2022/10/11 01:03:37;;;;;;;4.13;2.65;;;;;;;;;;9922823;29;20128;-61
2022/10/11 01:08:38;;;;;;;8.15;2.90;;;;;;;;;;9926990;29;20484;-61
2022/10/11 01:13:41;;;;;;;5.78;3.03;;;;;;;;;;9928193;29;20077;-63
2022/10/11 01:18:43;;;;;;;2.50;2.30;;;;;;;;;;9928014;29;20077;-62
2022/10/11 01:24:04;;;;;;;4.32;2.67;;;;;;;;;;9927461;29;20565;-62
2022/10/11 01:29:10;;;;;;;4.60;2.35;;;;;;;;;;9926796;29;20076;-64
2022/10/11 01:34:13;;;;;;;4.13;3.05;;;;;;;;;;9926851;29;20518;-62
2022/10/11 01:39:13;;;;;;;4.72;3.15;;;;;;;;;;9925408;29;20089;-62
2022/10/11 01:44:13;;;;;;;3.97;3.33;;;;;;;;;;9929334;29;20590;-63
2022/10/11 01:49:12;;;;;;;3.67;3.03;;;;;;;;;;9928687;29;20468;-62
2022/10/11 01:54:16;;;;;;;5.70;3.67;;;;;;;;;;9930478;29;20076;-62
2022/10/11 01:59:28;;;;;;;4.95;3.00;;;;;;;;;;9927914;29;20590;-63
2022/10/11 02:04:30;;;;;;;3.33;3.03;;;;;;;;;;9926344;29;20088;-62
2022/10/11 02:09:33;;;;;;;4.65;3.00;;;;;;;;;;9925533;29;20507;-62
2022/10/11 02:14:34;;;;;;;5.22;2.58;;;;;;;;;;9925491;29;20508;-63
2022/10/11 02:19:35;;;;;;;4.28;3.05;;;;;;;;;;9924757;29;20100;-61
2022/10/11 02:24:36;;;;;;;4.15;3.22;;;;;;;;;;9924415;29;20095;-64
2022/10/11 02:29:37;;;;;;;3.90;2.92;;;;;;;;;;9924792;29;20511;-62
2022/10/11 02:34:38;;;;;;;3.28;2.60;;;;;;;;;;9925637;29;20077;-62
2022/10/11 02:39:39;;;;;;;7.40;3.22;;;;;;;;;;9924833;29;20636;-62
2022/10/11 02:44:42;;;;;;;7.35;2.92;;;;;;;;;;9927687;29;20081;-62
2022/10/11 02:49:42;;;;;;;3.58;2.80;;;;;;;;;;9924841;29;20084;-62
2022/10/11 02:54:54;;;;;;;5.05;3.05;;;;;;;;;;9925761;29;20092;-64
2022/10/11 02:59:52;;;;;;;6.30;3.08;;;;;;;;;;9926969;29;20084;-63
2022/10/11 03:04:51;;;;;;;4.10;2.40;;;;;;;;;;9939093;29;20537;-63
2022/10/11 03:09:50;;;;;;;7.60;3.53;;;;;;;;;;9925144;29;20068;-64
2022/10/11 03:14:48;;;;;;;6.35;2.85;;;;;;;;;;9922685;29;20074;-64
2022/10/11 03:19:46;;;;;;;5.93;3.10;;;;;;;;;;9924298;29;20080;-63
2022/10/11 03:24:46;;;;;;;5.65;2.60;;;;;;;;;;9927971;29;20087;-64
2022/10/11 03:29:44;;;;;;;3.88;2.63;;;;;;;;;;9925072;29;20087;-64
2022/10/11 03:34:42;;;;;;;6.93;2.90;;;;;;;;;;9922300;29;20089;-64
2022/10/11 03:39:41;;;;;;;5.47;3.05;;;;;;;;;;9922727;29;20084;-64
2022/10/11 03:44:41;;;;;;;6.25;3.38;;;;;;;;;;9921528;29;20076;-64
2022/10/11 03:49:39;;;;;;;6.28;4.22;;;;;;;;;;9927049;29;20491;-66
2022/10/11 03:54:40;;;;;;;6.00;4.07;;;;;;;;;;9922086;29;20084;-65
2022/10/11 03:59:39;;;;;;;6.47;4.03;;;;;;;;;;9924256;29;20083;-64
2022/10/11 04:04:38;;;;;;;7.35;4.07;;;;;;;;;;9920937;29;20085;-65
2022/10/11 04:09:37;;;;;;;7.72;4.15;;;;;;;;;;9920931;29;20084;-64
2022/10/11 04:14:35;;;;;;;7.70;4.55;;;;;;;;;;9920306;29;20545;-64
2022/10/11 04:19:35;;;;;;;9.10;4.82;;;;;;;;;;9921029;29;20532;-65
2022/10/11 04:24:35;;;;;;;11.35;6.35;;;;;;;;;;9924906;29;20087;-66
2022/10/11 04:29:33;;;;;;;10.45;6.63;;;;;;;;;;9925010;29;20107;-64
2022/10/11 04:34:31;;;;;;;15.85;6.60;;;;;;;;;;9921242;29;20096;-66
2022/10/11 04:39:30;;;;;;;17.30;6.68;;;;;;;;;;9921069;29;20088;-66
2022/10/11 04:44:30;;;;;;;13.38;8.18;;;;;;;;;;9921535;29;20107;-64
2022/10/11 04:49:28;;;;;;;11.98;7.15;;;;;;;;;;9930443;29;20076;-65
2022/10/11 04:54:26;;;;;;;8.40;5.97;;;;;;;;;;9928261;29;20131;-64
2022/10/11 04:59:24;;;;;;;11.95;6.00;;;;;;;;;;9931969;29;20080;-64
2022/10/11 05:04:24;;;;;;;10.32;5.88;;;;;;;;;;9925288;29;20084;-65
2022/10/11 05:09:22;;;;;;;10.88;5.63;;;;;;;;;;9929715;29;20080;-65
2022/10/11 05:14:20;;;;;;;9.10;5.32;;;;;;;;;;9930426;29;20088;-65
2022/10/11 05:19:21;;;;;;;13.13;5.30;;;;;;;;;;9927245;29;20072;-65
2022/10/11 05:24:21;;;;;;;12.18;6.10;;;;;;;;;;9930671;29;20084;-65
2022/10/11 05:29:19;;;;;;;9.55;4.95;;;;;;;;;;9930906;29;20089;-64
2022/10/11 05:34:20;;;;;;;6.68;4.63;;;;;;;;;;9932775;29;20081;-63
2022/10/11 05:39:21;;;;;;;7.78;4.63;;;;;;;;;;9925551;29;20490;-64
2022/10/11 05:44:31;;;;;;;9.02;4.57;;;;;;;;;;9928787;29;20080;-64
2022/10/11 05:49:29;;;;;;;6.90;4.55;;;;;;;;;;9926210;29;20073;-65
2022/10/11 05:54:29;;;;;;;8.27;5.32;;;;;;;;;;9924989;29;20347;-64
2022/10/11 05:59:28;;;;;;;9.23;7.30;;;;;;;;;;9926584;29;20082;-64
2022/10/11 06:04:27;;;;;;;10.52;6.63;;;;;;;;;;9925325;29;20084;-65
2022/10/11 06:09:25;;;;;;;11.77;6.03;;;;;;;;;;9928584;29;20056;-65
2022/10/11 06:14:23;;;;;;;8.80;6.05;;;;;;;;;;9924498;29;20101;-64
2022/10/11 06:19:23;;;;;;;13.43;5.65;;;;;;;;;;9930685;29;20049;-64
2022/10/11 06:24:21;;;;;;;18.48;9.23;;;;;;;;;;9924085;29;20084;-64
2022/10/11 06:29:20;;;;;;;19.52;9.48;;;;;;;;;;9934774;29;20479;-64
2022/10/11 06:34:18;;;;;;;16.40;7.63;;;;;;;;;;9928328;29;20491;-65
2022/10/11 06:39:18;;;;;;;15.20;7.07;;;;;;;;;;9924333;29;20080;-65
2022/10/11 06:44:17;;;;;;;9.88;5.78;;;;;;;;;;9922957;29;20340;-64
2022/10/11 06:49:15;;;;;;;11.23;7.53;;;;;;;;;;9924447;29;20081;-63
2022/10/11 06:54:21;;;;;;;13.55;6.90;;;;;;;;;;9924038;29;20087;-63
2022/10/11 06:59:19;;;;;;;11.80;5.95;;;;;;;;;;9923742;29;20080;-63
2022/10/11 07:04:18;;;;;;;12.82;6.30;;;;;;;;;;9928112;29;20507;-64
2022/10/11 07:09:16;;;;;;;10.65;6.45;;;;;;;;;;9922980;29;20087;-66
2022/10/11 07:14:15;;;;;;;10.30;6.05;;;;;;;;;;9923057;29;20080;-64
2022/10/11 07:19:14;;;;;;;8.20;5.35;;;;;;;;;;9921711;29;20486;-63
2022/10/11 07:24:12;;;;;;;9.15;4.60;;;;;;;;;;9922012;29;20097;-63
2022/10/11 07:29:10;;;;;;;11.10;5.07;;;;;;;;;;9922059;29;20057;-62
2022/10/11 07:34:10;;;;;;;8.48;5.28;;;;;;;;;;9923076;29;20093;-64
2022/10/11 07:39:09;;;;;;;11.23;5.13;;;;;;;;;;9921268;29;20057;-63
2022/10/11 07:44:07;;;;;;;13.88;5.25;;;;;;;;;;9921406;29;20480;-63
2022/10/11 07:49:05;;;;;;;11.25;4.78;;;;;;;;;;9920626;29;20096;-63
2022/10/11 07:54:05;;;;;;;13.20;4.78;;;;;;;;;;9921812;29;20076;-64
2022/10/11 07:59:05;;;;;;;11.73;4.93;;;;;;;;;;9921251;29;20534;-63
2022/10/11 08:04:03;;;;;;;10.07;4.47;;;;;;;;;;9920793;29;20503;-63
2022/10/11 08:09:01;;;;;;;9.65;4.10;;;;;;;;;;9921474;29;20073;-63
2022/10/11 08:14:03;;;;;;;8.68;5.18;;;;;;;;;;9920548;29;20080;-64
2022/10/11 08:19:02;;;;;;;15.75;5.40;;;;;;;;;;9920157;29;20078;-64
2022/10/11 08:24:01;;;;;;;15.85;4.22;;;;;;;;;;9920081;29;20077;-64
2022/10/11 08:29:02;;;;;;;7.38;5.97;;;;;;;;;;9920401;29;20491;-63
2022/10/11 08:34:01;;;;;;;13.52;5.60;;;;;;;;;;9922442;29;20088;-63
2022/10/11 08:39:00;;;;;;;12.55;4.82;;;;;;;;;;9920310;29;20076;-63
2022/10/11 08:44:08;;;;;;;6.82;4.00;;;;;;;;;;9919806;29;20439;-64
2022/10/11 08:49:08;;;;;;;14.38;6.18;;;;;;;;;;9925421;29;20087;-66
2022/10/11 08:54:12;;;;;;;18.13;5.82;;;;;;;;;;9919353;29;20542;-66
2022/10/11 08:59:18;;;;;;;19.97;6.73;;;;;;;;;;9918725;29;20159;-65
2022/10/11 09:04:17;;;;;;;15.13;4.80;;;;;;;;;;9919025;29;20093;-66
2022/10/11 09:09:27;;;;;;;12.98;4.80;;;;;;;;;;9921532;29;20068;-65
2022/10/11 09:14:38;;;;;;;13.73;5.13;;;;;;;;;;9920615;29;20467;-65
2022/10/11 09:19:50;;;;;;;12.55;5.38;;;;;;;;;;9922111;29;20077;-65
2022/10/11 09:24:55;;;;;;;11.70;5.82;;;;;;;;;;9921838;29;20084;-64
2022/10/11 09:29:58;;;;;;;12.38;5.50;;;;;;;;;;9919705;29;20506;-65
2022/10/11 09:34:59;;;;;;;16.77;5.75;;;;;;;;;;9926740;29;20076;-64
2022/10/11 09:40:02;;;;;;;12.68;5.28;;;;;;;;;;9926588;29;20080;-65
2022/10/11 09:45:03;;;;;;;12.50;5.20;;;;;;;;;;9925775;29;20080;-66
2022/10/11 09:50:15;;;;;;;11.60;6.45;;;;;;;;;;9928592;29;20081;-65
2022/10/11 09:55:30;;;;;;;20.23;8.18;;;;;;;;;;9931727;29;20087;-67
2022/10/11 10:00:32;;;;;;;12.85;6.40;;;;;;;;;;9928566;29;20093;-66
2022/10/11 10:05:32;;;;;;;15.55;6.18;;;;;;;;;;9925049;29;20084;-66
2022/10/11 10:10:34;;;;;;;10.45;6.18;;;;;;;;;;9925312;29;20458;-65
2022/10/11 10:15:41;;;;;;;11.30;5.18;;;;;;;;;;9924397;29;20079;-67
2022/10/11 10:20:39;;;;;;;12.63;5.43;;;;;;;;;;9924589;29;20112;-65
2022/10/11 10:25:38;;;;;;;14.70;5.40;;;;;;;;;;9927257;29;20522;-67
2022/10/11 10:30:49;;;;;;;13.35;6.65;;;;;;;;;;9923980;29;20092;-65
2022/10/11 10:35:51;;;;;;;16.98;6.20;;;;;;;;;;9923973;29;20076;-66
2022/10/11 10:40:51;;;;;;;10.15;5.15;;;;;;;;;;9923918;29;20091;-65
2022/10/11 10:46:04;;;;;;;10.88;4.88;;;;;;;;;;9923481;29;20143;-66
2022/10/11 10:51:07;;;;;;;12.88;5.05;;;;;;;;;;9925124;29;20092;-66
2022/10/11 10:56:10;;;;;;;12.60;5.57;;;;;;;;;;9923026;29;20503;-66
2022/10/11 11:01:13;;;;;;;12.10;5.65;;;;;;;;;;9923453;29;20077;-66
2022/10/11 11:06:16;;;;;;;12.40;5.82;;;;;;;;;;9924445;29;20080;-67
2022/10/11 11:11:23;;;;;;;12.77;5.78;;;;;;;;;;9923171;29;20077;-66
2022/10/11 11:16:26;;;;;;;18.52;5.88;;;;;;;;;;9922421;29;20155;-65
2022/10/11 11:21:30;;;;;;;12.43;5.32;;;;;;;;;;9925151;29;20099;-65
2022/10/11 11:26:28;;;;;;;;;;;;;;;;;;9927194;29;20549;-67
2022/10/11 11:31:36;;;;;;;13.55;6.15;;;;;;;;;;9923451;29;19930;-66
2022/10/11 11:36:37;;;;;;;7.38;5.40;;;;;;;;;;9927060;29;20108;-66
2022/10/11 11:41:37;;;;;;;11.98;5.85;;;;;;;;;;9922383;29;20079;-65
2022/10/11 11:46:38;;;;;;;13.98;5.57;;;;;;;;;;9921582;29;20135;-66
2022/10/11 11:51:41;;;;;;;10.77;5.57;;;;;;;;;;9921470;29;20395;-64
2022/10/11 11:56:45;;;;;;;6.45;4.90;;;;;;;;;;9933786;29;20076;-67
2022/10/11 12:01:49;;;;;;;12.60;5.18;;;;;;;;;;9929422;29;20174;-65
2022/10/11 12:07:27;;;;;;;10.00;6.38;;;;;;;;;;9922495;29;20213;-66
2022/10/11 12:13:27;;;;;;;12.63;6.10;;;;;;;;;;9916434;29;20475;-67
2022/10/11 12:42:18;;;;;;;12.35;6.60;;;;;;;;;;9910536;29;20088;-65
2022/10/11 12:47:24;;;;;;;15.23;7.43;;;;;;;;;;9919310;29;20088;-66
2022/10/11 12:52:25;;;;;;;16.42;6.40;;;;;;;;;;9919360;29;20071;-65
2022/10/11 12:57:45;;;;;;;15.73;6.70;;;;;;;;;;9919615;29;20069;-65
2022/10/11 13:02:46;;;;;;;11.93;6.70;;;;;;;;;;9916313;29;20072;-65
2022/10/11 13:07:45;;;;;;;8.07;6.22;;;;;;;;;;9929237;29;20081;-65
2022/10/11 13:12:46;;;;;;;12.90;6.05;;;;;;;;;;9927447;29;20081;-64
2022/10/11 13:17:47;;;;;;;8.63;6.70;;;;;;;;;;9927456;29;20084;-65
2022/10/11 13:22:47;;;;;;;13.43;7.72;;;;;;;;;;9926017;29;20076;-64
2022/10/11 13:27:45;;;;;;;12.60;7.03;;;;;;;;;;9925869;29;21118;-64
2022/10/11 13:32:44;;;;;;;14.00;7.30;;;;;;;;;;9927420;29;20455;-64
2022/10/11 13:37:46;;;;;;;12.77;9.07;;;;;;;;;;9927781;29;20072;-63
2022/10/11 13:42:44;;;;;;;11.23;7.55;;;;;;;;;;9927244;29;20103;-64
2022/10/11 13:47:43;;;;;;;9.88;6.65;;;;;;;;;;9926350;29;20069;-65
2022/10/11 13:52:51;;;;;;;12.48;6.93;;;;;;;;;;9926086;29;20068;-65
2022/10/11 13:57:50;;;;;;;11.20;8.20;;;;;;;;;;9925322;29;20077;-65
2022/10/11 14:02:50;;;;;;;15.55;8.40;;;;;;;;;;9926843;29;20087;-64
2022/10/11 14:07:50;;;;;;;11.15;6.70;;;;;;;;;;9925064;29;20164;-64
2022/10/11 14:12:57;;;;;;;14.98;7.90;;;;;;;;;;9925542;29;20088;-64
2022/10/11 14:17:55;;;;;;;16.38;6.72;;;;;;;;;;9925974;29;20087;-63
2022/10/11 14:22:55;;;;;;;14.32;6.80;;;;;;;;;;9926694;29;20068;-64
2022/10/11 14:27:54;;;;;;;14.15;6.82;;;;;;;;;;9926985;29;20072;-63
2022/10/11 14:32:53;;;;;;;26.58;16.80;;;;;;;;;;9925552;29;20076;-64
2022/10/11 14:37:58;;;;;;;27.83;15.77;;;;;;;;;;9925866;29;20116;-63
2022/10/11 14:42:57;;;;;;;24.17;12.57;;;;;;;;;;9923354;29;20317;-64
2022/10/11 14:47:55;;;;;;;17.83;10.73;;;;;;;;;;9923233;29;20091;-63
2022/10/11 14:52:54;;;;;;;19.50;7.78;;;;;;;;;;9924085;29;20084;-64
2022/10/11 14:57:55;;;;;;;20.70;17.70;;;;;;;;;;9925199;29;20466;-63
2022/10/11 15:02:53;;;;;;;16.73;9.80;;;;;;;;;;9927882;29;20069;-64
2022/10/11 15:07:52;;;;;;;19.83;8.73;;;;;;;;;;9925074;29;20091;-64
2022/10/11 15:12:51;;;;;;;17.88;9.00;;;;;;;;;;9929898;29;20080;-64
2022/10/11 15:17:52;;;;;;;16.95;8.90;;;;;;;;;;9923040;29;20084;-63
2022/10/11 15:22:50;;;;;;;21.02;9.43;;;;;;;;;;9923238;29;20088;-64
2022/10/11 15:27:48;;;;;;;14.75;8.98;;;;;;;;;;9928101;29;20076;-64
2022/10/11 15:32:47;;;;;;;13.20;7.88;;;;;;;;;;9922263;29;20080;-64
2022/10/11 15:37:47;;;;;;;23.05;11.18;;;;;;;;;;9922684;29;20072;-64
2022/10/11 15:42:45;;;;;;;17.17;8.95;;;;;;;;;;9924742;29;20777;-63
2022/10/11 15:47:43;;;;;;;20.25;8.48;;;;;;;;;;9924656;29;20101;-64
2022/10/11 15:52:42;;;;;;;23.55;9.02;;;;;;;;;;9926279;29;20076;-65
2022/10/11 15:57:41;;;;;;;26.30;10.50;;;;;;;;;;9924750;29;20089;-64
2022/10/11 16:02:39;;;;;;;18.05;8.43;;;;;;;;;;9929190;29;20073;-65
2022/10/11 16:07:38;;;;;;;16.13;7.55;;;;;;;;;;9921153;29;20081;-63
2022/10/11 16:12:36;;;;;;;20.17;7.50;;;;;;;;;;9921581;29;20085;-63
2022/10/11 16:17:36;;;;;;;13.85;7.90;;;;;;;;;;9923487;29;20080;-64
2022/10/11 16:22:34;;;;;;;21.63;9.38;;;;;;;;;;9921366;29;20072;-64
2022/10/11 16:27:33;;;;;;;19.83;10.48;;;;;;;;;;9921514;29;20103;-65
2022/10/11 16:32:31;;;;;;;14.65;10.10;;;;;;;;;;9935971;29;20095;-64
2022/10/11 16:37:32;;;;;;;15.10;9.70;;;;;;;;;;9930689;29;20082;-65
2022/10/11 16:42:30;;;;;;;21.65;10.15;;;;;;;;;;9921803;29;20076;-64
2022/10/11 16:47:28;;;;;;;20.65;11.13;;;;;;;;;;9922600;29;20092;-64
2022/10/11 16:52:26;;;;;;;23.25;13.18;;;;;;;;;;9922519;29;20076;-64
2022/10/11 16:57:26;;;;;;;26.38;13.75;;;;;;;;;;9922144;29;20081;-64
2022/10/11 17:02:25;;;;;;;33.72;18.73;;;;;;;;;;9922423;29;20052;-64
2022/10/11 17:07:30;;;;;;;21.35;14.18;;;;;;;;;;9923984;29;20085;-65
2022/10/11 17:12:37;;;;;;;21.77;13.73;;;;;;;;;;9921741;29;20084;-64
2022/10/11 17:17:35;;;;;;;18.60;14.10;;;;;;;;;;9922679;29;20519;-64
2022/10/11 17:22:33;;;;;;;25.92;16.30;;;;;;;;;;9922499;29;20087;-64
2022/10/11 17:27:32;;;;;;;72.95;59.10;;;;;;;;;;9921743;29;20084;-64
2022/10/11 17:32:31;;;;;;;49.85;34.05;;;;;;;;;;9921145;29;20080;-65
2022/10/11 17:37:29;;;;;;;37.75;24.48;;;;;;;;;;9922389;29;20053;-63
2022/10/11 17:42:28;;;;;;;28.90;19.77;;;;;;;;;;9919484;29;20077;-64
2022/10/11 17:47:27;;;;;;;32.13;23.88;;;;;;;;;;9923384;29;20091;-64
2022/10/11 17:52:26;;;;;;;21.90;19.52;;;;;;;;;;9928315;29;20073;-64
2022/10/11 17:57:25;;;;;;;30.17;18.83;;;;;;;;;;9946312;29;20491;-63
2022/10/11 18:02:24;;;;;;;32.97;20.52;;;;;;;;;;9932733;29;20049;-63
2022/10/11 18:07:23;;;;;;;101.85;68.13;;;;;;;;;;9928913;29;20092;-64
2022/10/11 18:12:22;;;;;;;56.75;40.72;;;;;;;;;;9930917;29;20534;-64
2022/10/11 18:17:21;;;;;;;26.35;17.67;;;;;;;;;;9931701;29;20081;-65
2022/10/11 18:22:20;;;;;;;25.90;16.58;;;;;;;;;;9928539;29;20718;-64
2022/10/11 18:27:18;;;;;;;18.55;15.13;;;;;;;;;;9940546;29;20107;-65
2022/10/11 18:32:19;;;;;;;22.52;15.32;;;;;;;;;;9953144;29;20085;-64
2022/10/11 18:37:19;;;;;;;23.77;14.88;;;;;;;;;;9936477;29;20080;-63
2022/10/11 18:42:19;;;;;;;23.85;15.32;;;;;;;;;;9932559;29;20081;-63
2022/10/11 18:47:18;;;;;;;20.58;15.10;;;;;;;;;;9927905;29;20504;-65
2022/10/11 18:52:25;;;;;;;27.83;13.65;;;;;;;;;;9924468;29;20080;-64
2022/10/11 18:57:23;;;;;;;21.52;15.68;;;;;;;;;;9926580;29;20092;-65
2022/10/11 19:02:25;;;;;;;22.17;16.83;;;;;;;;;;9926555;29;20076;-65
2022/10/11 19:07:25;;;;;;;26.02;17.67;;;;;;;;;;9930081;29;21388;-65
2022/10/11 19:12:23;;;;;;;42.25;21.20;;;;;;;;;;9936635;29;20541;-64
2022/10/11 19:17:26;;;;;;;37.75;19.92;;;;;;;;;;9935832;29;20085;-64
2022/10/11 19:22:24;;;;;;;31.15;20.42;;;;;;;;;;9938843;29;20076;-64
2022/10/11 19:27:22;;;;;;;31.38;20.42;;;;;;;;;;9927229;29;20076;-65
2022/10/11 19:32:23;;;;;;;37.63;21.67;;;;;;;;;;9925697;29;20077;-64
2022/10/11 19:37:25;;;;;;;28.15;19.13;;;;;;;;;;9929820;29;20076;-64
2022/10/11 19:42:23;;;;;;;20.20;12.73;;;;;;;;;;9924379;29;20092;-64
2022/10/11 19:47:24;;;;;;;12.25;8.70;;;;;;;;;;9930021;29;20076;-65
2022/10/11 19:52:24;;;;;;;11.27;7.22;;;;;;;;;;9930143;29;20090;-64
2022/10/11 19:57:22;;;;;;;10.45;5.13;;;;;;;;;;9928498;29;20081;-64
2022/10/11 20:02:20;;;;;;;7.38;3.90;;;;;;;;;;9930307;29;20522;-64
2022/10/11 20:07:19;;;;;;;7.85;3.38;;;;;;;;;;9926203;29;20073;-66
2022/10/11 20:12:19;;;;;;;7.32;3.50;;;;;;;;;;9928215;29;20084;-64
2022/10/11 20:17:17;;;;;;;6.10;3.78;;;;;;;;;;9926423;29;20080;-63
2022/10/11 20:22:15;;;;;;;5.40;3.45;;;;;;;;;;9930118;29;20520;-63
2022/10/11 20:27:14;;;;;;;6.43;3.00;;;;;;;;;;9925041;29;20174;-63
2022/10/11 20:32:13;;;;;;;4.30;3.35;;;;;;;;;;9924451;29;20609;-63
2022/10/11 20:37:12;;;;;;;6.82;3.25;;;;;;;;;;9924790;29;20080;-62
2022/10/11 20:42:12;;;;;;;8.57;3.28;;;;;;;;;;9927265;29;20076;-64
2022/10/11 20:47:10;;;;;;;5.45;4.07;;;;;;;;;;9930070;29;20081;-64
2022/10/11 20:52:10;;;;;;;7.68;3.33;;;;;;;;;;9935066;29;20152;-63
2022/10/11 20:57:08;;;;;;;6.43;2.83;;;;;;;;;;9950363;29;20553;-63
2022/10/11 21:02:07;;;;;;;8.57;3.20;;;;;;;;;;9941639;29;20091;-64
2022/10/11 21:07:05;;;;;;;7.45;3.10;;;;;;;;;;9925663;29;20107;-65
2022/10/11 21:12:06;;;;;;;8.32;3.47;;;;;;;;;;9928065;29;20189;-63
2022/10/11 21:17:04;;;;;;;6.80;3.30;;;;;;;;;;9920761;29;20089;-63
2022/10/11 21:22:02;;;;;;;4.97;2.90;;;;;;;;;;9920986;29;20081;-65
2022/10/11 21:27:00;;;;;;;5.05;2.97;;;;;;;;;;9923439;29;20091;-65
2022/10/11 21:32:00;;;;;;;3.33;3.03;;;;;;;;;;9928829;29;20470;-64
2022/10/11 21:36:59;;;;;;;8.05;2.78;;;;;;;;;;9930419;29;20068;-64
2022/10/11 21:41:57;;;;;;;9.93;2.88;;;;;;;;;;9927990;29;20072;-64
2022/10/11 21:46:55;;;;;;;4.75;2.90;;;;;;;;;;9927425;29;20091;-64
2022/10/11 21:52:10;;;;;;;5.45;2.90;;;;;;;;;;9927058;29;20077;-63
2022/10/11 21:57:08;;;;;;;4.43;2.95;;;;;;;;;;9926445;29;20076;-63
2022/10/11 22:02:07;;;;;;;9.18;3.20;;;;;;;;;;9926069;29;20088;-64
2022/10/11 22:07:05;;;;;;;7.40;3.33;;;;;;;;;;9929018;29;20474;-63
2022/10/11 22:12:05;;;;;;;4.00;2.90;;;;;;;;;;9927924;29;20080;-64
2022/10/11 22:17:03;;;;;;;5.60;2.90;;;;;;;;;;9928707;29;20072;-65
2022/10/11 22:22:01;;;;;;;5.50;2.33;;;;;;;;;;9928932;29;20083;-62
2022/10/11 22:26:59;;;;;;;6.05;2.70;;;;;;;;;;9928185;29;20475;-64
2022/10/11 22:31:59;;;;;;;5.15;2.80;;;;;;;;;;9927934;29;20531;-63
2022/10/11 22:36:57;;;;;;;4.35;3.28;;;;;;;;;;9928048;29;20081;-64
2022/10/11 22:41:55;;;;;;;4.95;2.72;;;;;;;;;;9925630;29;20091;-64
2022/10/11 22:46:54;;;;;;;3.40;2.60;;;;;;;;;;9928235;29;20081;-67
2022/10/11 22:51:53;;;;;;;4.38;2.35;;;;;;;;;;9930860;29;20092;-63
2022/10/11 22:56:52;;;;;;;6.10;3.08;;;;;;;;;;9924500;29;20085;-64
2022/10/11 23:01:50;;;;;;;5.47;3.13;;;;;;;;;;9924814;29;20115;-64
2022/10/11 23:06:48;;;;;;;5.82;3.55;;;;;;;;;;9924650;29;20084;-63
2022/10/11 23:11:48;;;;;;;5.85;3.08;;;;;;;;;;9931034;29;20575;-63
2022/10/11 23:16:46;;;;;;;6.90;2.97;;;;;;;;;;9924036;29;20511;-63
2022/10/11 23:21:44;;;;;;;4.40;3.35;;;;;;;;;;9924387;29;20080;-64
2022/10/11 23:26:42;;;;;;;5.70;3.30;;;;;;;;;;9923948;29;20519;-64
2022/10/11 23:31:42;;;;;;;5.63;3.28;;;;;;;;;;9924713;29;20077;-64
2022/10/11 23:36:40;;;;;;;4.10;3.47;;;;;;;;;;9931832;29;20088;-65
2022/10/11 23:41:38;;;;;;;4.15;3.13;;;;;;;;;;9927719;29;20083;-64
2022/10/11 23:46:36;;;;;;;4.50;2.65;;;;;;;;;;9924280;29;20064;-64
2022/10/11 23:51:39;;;;;;;5.35;3.22;;;;;;;;;;9924167;29;20083;-64
2022/10/11 23:56:38;;;;;;;4.53;3.03;;;;;;;;;;9923789;29;20076;-64
